KETH

Wheaton Municipal Airport

Wheaton, Minnesota, USA
METAR KETH 221731Z AUTO 00000KT 10SM CLR 23/13 A3002 RMK AO2
Observed Flight Rules
May-22 @ 17:31 UTC (19 minutes ago) Visual Flight Rules
Visibility Clouds
10 miles
  • Clear skies
Temperatures Readings
Current 23°C / 73°F
Dewpoint 13°C / 55°F
Humidity 53%
Altimeter 30.02" Hg
Pressure 1017 hPa
Elevation 313
METAR KETH 221731Z AUTO 00000KT 10SM CLR 23/13 A3002 RMK AO2
Observed Flight Rules
May-22 @ 17:31 UTC
(19 minutes ago)
VFR
Clouds
  • Clear skies
Temperature Dewpoint
23°C / 73°F 13°C / 55°F
Humidity Altimeter Pressure
53% 30.02" Hg 1017 hPa